createdAt,value
2022-07-29T00:00:43.139Z,14.90
2022-07-29T00:01:43.181Z,14.87
2022-07-29T00:02:43.051Z,14.82
2022-07-29T00:03:43.148Z,14.77
2022-07-29T00:04:43.089Z,14.71
2022-07-29T00:05:42.985Z,14.68
2022-07-29T00:06:42.972Z,14.68
2022-07-29T00:07:43.000Z,14.70
2022-07-29T00:08:42.957Z,14.71
2022-07-29T00:09:51.620Z,14.69
2022-07-29T00:10:42.919Z,14.67
2022-07-29T00:11:42.926Z,14.66
2022-07-29T00:12:42.901Z,14.65
2022-07-29T00:13:45.384Z,14.64
2022-07-29T00:14:42.885Z,14.62
2022-07-29T00:15:42.888Z,14.59
2022-07-29T00:16:42.949Z,14.55
2022-07-29T00:17:42.833Z,14.51
2022-07-29T00:18:42.830Z,14.50
2022-07-29T00:19:45.528Z,14.49
2022-07-29T00:20:42.789Z,14.49
2022-07-29T00:21:42.808Z,14.49
2022-07-29T00:22:42.779Z,14.50
2022-07-29T00:23:42.757Z,14.53
2022-07-29T00:24:42.737Z,14.56
2022-07-29T00:25:42.731Z,14.57
2022-07-29T00:26:42.710Z,14.58
2022-07-29T00:27:42.704Z,14.58
2022-07-29T00:28:42.677Z,14.55
2022-07-29T00:29:42.660Z,14.52
2022-07-29T00:30:42.675Z,14.48
2022-07-29T00:31:42.699Z,14.44
2022-07-29T00:32:42.625Z,14.42
2022-07-29T00:33:42.615Z,14.42
2022-07-29T00:34:42.610Z,14.42
2022-07-29T00:35:42.578Z,14.41
2022-07-29T00:36:42.564Z,14.40
2022-07-29T00:37:42.613Z,14.38
2022-07-29T00:38:42.544Z,14.36
2022-07-29T00:39:42.528Z,14.33
2022-07-29T00:40:43.264Z,14.31
2022-07-29T00:41:42.551Z,14.29
2022-07-29T00:42:42.506Z,14.26
2022-07-29T00:43:42.514Z,14.23
2022-07-29T00:44:42.496Z,14.20
2022-07-29T00:45:42.513Z,14.20
2022-07-29T00:46:42.514Z,14.22
2022-07-29T00:47:42.422Z,14.23
2022-07-29T00:48:42.573Z,14.23
2022-07-29T00:49:42.422Z,14.21
2022-07-29T00:50:42.375Z,14.17
2022-07-29T00:51:42.478Z,14.15
2022-07-29T00:52:42.353Z,14.16
2022-07-29T00:53:42.371Z,14.17
2022-07-29T00:54:44.170Z,14.17
2022-07-29T00:55:42.318Z,14.15
2022-07-29T00:56:42.298Z,14.11
2022-07-29T00:57:42.309Z,14.08
2022-07-29T00:58:42.289Z,14.06
2022-07-29T00:59:42.272Z,14.03
2022-07-29T01:00:42.290Z,14.00
2022-07-29T01:01:42.340Z,13.99
2022-07-29T01:02:42.231Z,13.98
2022-07-29T01:03:42.224Z,13.97
2022-07-29T01:04:42.212Z,13.97
2022-07-29T01:05:50.020Z,13.96
2022-07-29T01:06:42.210Z,13.95
2022-07-29T01:07:42.186Z,13.94
2022-07-29T01:08:42.168Z,13.92
2022-07-29T01:09:46.076Z,13.90
2022-07-29T01:10:42.153Z,13.86
2022-07-29T01:11:42.122Z,13.83
2022-07-29T01:12:42.104Z,13.82
2022-07-29T01:13:42.171Z,13.81
2022-07-29T01:14:42.139Z,13.80
2022-07-29T01:15:49.110Z,13.78
2022-07-29T01:16:42.125Z,13.77
2022-07-29T01:17:52.454Z,13.75
2022-07-29T01:18:42.067Z,13.72
2022-07-29T01:19:42.165Z,13.70
2022-07-29T01:20:42.049Z,13.68
2022-07-29T01:21:42.347Z,13.66
2022-07-29T01:22:42.020Z,13.65
2022-07-29T01:23:42.141Z,13.65
2022-07-29T01:24:42.018Z,13.67
2022-07-29T01:25:42.047Z,13.69
2022-07-29T01:26:42.076Z,13.70
2022-07-29T01:27:41.968Z,13.69
2022-07-29T01:28:42.087Z,13.68
2022-07-29T01:29:41.951Z,13.65
2022-07-29T01:30:41.962Z,13.61
2022-07-29T01:31:55.196Z,13.58
2022-07-29T01:32:41.852Z,13.54
2022-07-29T01:33:41.826Z,13.50
2022-07-29T01:34:41.881Z,13.48
2022-07-29T01:35:41.803Z,13.47
2022-07-29T01:36:41.783Z,13.47
2022-07-29T01:37:41.799Z,13.46
2022-07-29T01:38:41.901Z,13.46
2022-07-29T01:39:41.758Z,13.45
2022-07-29T01:40:41.734Z,13.43
2022-07-29T01:41:41.747Z,13.41
2022-07-29T01:42:41.680Z,13.40
2022-07-29T01:43:41.717Z,13.39
2022-07-29T01:44:41.657Z,13.40
2022-07-29T01:45:41.763Z,13.39
2022-07-29T01:46:41.654Z,13.38
2022-07-29T01:47:41.674Z,13.36
2022-07-29T01:48:41.719Z,13.35
2022-07-29T01:49:41.661Z,13.35
2022-07-29T01:50:41.573Z,13.36
2022-07-29T01:51:41.645Z,13.36
2022-07-29T01:52:41.548Z,13.36
2022-07-29T01:53:41.539Z,13.39
2022-07-29T01:54:41.532Z,13.42
2022-07-29T01:55:41.548Z,13.46
2022-07-29T01:56:41.515Z,13.50
2022-07-29T01:57:41.520Z,13.52
2022-07-29T01:58:41.478Z,13.54
2022-07-29T01:59:41.481Z,13.56
2022-07-29T02:00:43.635Z,13.57
2022-07-29T02:01:41.574Z,13.56
2022-07-29T02:02:41.446Z,13.53
2022-07-29T02:03:41.456Z,13.51
2022-07-29T02:04:41.517Z,13.49
2022-07-29T02:05:41.493Z,13.47
2022-07-29T02:06:41.400Z,13.45
2022-07-29T02:07:41.372Z,13.43
2022-07-29T02:08:41.453Z,13.42
2022-07-29T02:09:41.359Z,13.40
2022-07-29T02:10:41.372Z,13.38
2022-07-29T02:11:41.365Z,13.37
2022-07-29T02:12:41.323Z,13.36
2022-07-29T02:13:41.293Z,13.35
2022-07-29T02:14:41.271Z,13.34
2022-07-29T02:15:41.285Z,13.33
2022-07-29T02:16:41.242Z,13.32
2022-07-29T02:17:41.234Z,13.31
2022-07-29T02:18:41.214Z,13.29
2022-07-29T02:19:41.198Z,13.26
2022-07-29T02:20:41.240Z,13.25
2022-07-29T02:21:41.167Z,13.26
2022-07-29T02:22:41.159Z,13.29
2022-07-29T02:23:50.991Z,13.33
2022-07-29T02:24:41.129Z,13.34
2022-07-29T02:25:41.139Z,13.34
2022-07-29T02:26:41.117Z,13.33
2022-07-29T02:27:41.097Z,13.32
2022-07-29T02:28:41.080Z,13.30
2022-07-29T02:29:41.067Z,13.27
2022-07-29T02:30:41.044Z,13.24
2022-07-29T02:31:41.119Z,13.22
2022-07-29T02:32:41.071Z,13.22
2022-07-29T02:33:41.043Z,13.22
2022-07-29T02:34:40.991Z,13.21
2022-07-29T02:35:40.994Z,13.20
2022-07-29T02:36:40.994Z,13.20
2022-07-29T02:37:40.956Z,13.23
2022-07-29T02:38:40.942Z,13.26
2022-07-29T02:39:40.953Z,13.27
2022-07-29T02:40:40.915Z,13.27
2022-07-29T02:41:40.903Z,13.26
2022-07-29T02:42:40.897Z,13.25
2022-07-29T02:43:40.891Z,13.23
2022-07-29T02:44:40.857Z,13.21
2022-07-29T02:45:40.881Z,13.21
2022-07-29T02:46:40.867Z,13.20
2022-07-29T02:47:41.881Z,13.19
2022-07-29T02:48:40.860Z,13.17
2022-07-29T02:49:40.816Z,13.14
2022-07-29T02:50:40.780Z,13.12
2022-07-29T02:51:41.394Z,13.09
2022-07-29T02:52:40.784Z,13.05
2022-07-29T02:53:40.793Z,13.00
2022-07-29T02:54:40.728Z,12.96
2022-07-29T02:55:40.742Z,12.94
2022-07-29T02:56:40.732Z,12.94
2022-07-29T02:57:54.631Z,12.95
2022-07-29T02:58:40.697Z,12.96
2022-07-29T02:59:40.661Z,12.95
2022-07-29T03:00:40.643Z,12.95
2022-07-29T03:01:40.719Z,12.94
2022-07-29T03:02:40.639Z,12.92
2022-07-29T03:03:40.612Z,12.91
2022-07-29T03:04:40.618Z,12.90
2022-07-29T03:05:40.616Z,12.90
2022-07-29T03:06:40.597Z,12.92
2022-07-29T03:07:40.557Z,12.94
2022-07-29T03:08:40.566Z,12.96
2022-07-29T03:09:40.547Z,12.97
2022-07-29T03:10:40.514Z,12.97
2022-07-29T03:11:46.146Z,12.97
2022-07-29T03:12:40.520Z,12.97
2022-07-29T03:13:40.479Z,12.99
2022-07-29T03:14:40.476Z,13.02
2022-07-29T03:15:40.517Z,13.07
2022-07-29T03:16:41.375Z,13.10
2022-07-29T03:17:40.459Z,13.12
2022-07-29T03:18:40.409Z,13.14
2022-07-29T03:19:40.419Z,13.14
2022-07-29T03:20:40.389Z,13.15
2022-07-29T03:21:40.371Z,13.16
2022-07-29T03:22:40.384Z,13.18
2022-07-29T03:23:40.343Z,13.21
2022-07-29T03:24:40.368Z,13.23
2022-07-29T03:25:40.327Z,13.24
2022-07-29T03:26:40.300Z,13.25
2022-07-29T03:27:40.290Z,13.25
2022-07-29T03:28:40.276Z,13.27
2022-07-29T03:29:40.282Z,13.29
2022-07-29T03:30:40.285Z,13.30
2022-07-29T03:31:40.282Z,13.30
2022-07-29T03:32:40.216Z,13.31
2022-07-29T03:33:40.210Z,13.31
2022-07-29T03:34:40.196Z,13.32
2022-07-29T03:35:40.216Z,13.33
2022-07-29T03:36:40.181Z,13.36
2022-07-29T03:37:40.178Z,13.38
2022-07-29T03:38:40.176Z,13.39
2022-07-29T03:39:40.135Z,13.39
2022-07-29T03:40:40.127Z,13.39
2022-07-29T03:41:40.187Z,13.39
2022-07-29T03:42:40.102Z,13.39
2022-07-29T03:43:48.962Z,13.40
2022-07-29T03:44:40.096Z,13.40
2022-07-29T03:45:40.055Z,13.42
2022-07-29T03:46:40.118Z,13.43
2022-07-29T03:47:50.082Z,13.45
2022-07-29T03:48:40.028Z,13.46
2022-07-29T03:49:40.018Z,13.47
2022-07-29T03:50:39.979Z,13.48
2022-07-29T03:51:40.009Z,13.48
2022-07-29T03:52:39.974Z,13.48
2022-07-29T03:53:39.966Z,13.48
2022-07-29T03:54:39.949Z,13.49
2022-07-29T03:55:39.945Z,13.51
2022-07-29T03:56:39.943Z,13.53
2022-07-29T03:57:39.914Z,13.56
2022-07-29T03:58:39.874Z,13.57
2022-07-29T03:59:39.866Z,13.58
2022-07-29T04:00:39.878Z,13.60
2022-07-29T04:01:39.942Z,13.62
2022-07-29T04:02:39.842Z,13.64
2022-07-29T04:03:39.897Z,13.67
2022-07-29T04:04:39.813Z,13.69
2022-07-29T04:05:39.807Z,13.72
2022-07-29T04:06:39.787Z,13.74
2022-07-29T04:07:39.778Z,13.76
2022-07-29T04:08:39.928Z,13.78
2022-07-29T04:09:39.754Z,13.80
2022-07-29T04:10:39.739Z,13.82
2022-07-29T04:12:03.369Z,13.84
2022-07-29T04:12:39.699Z,13.86
2022-07-29T04:13:39.678Z,13.88
2022-07-29T04:14:39.681Z,13.91
2022-07-29T04:15:39.666Z,13.93
2022-07-29T04:16:39.655Z,13.95
2022-07-29T04:17:39.644Z,13.97
2022-07-29T04:18:39.641Z,13.99
2022-07-29T04:19:39.594Z,14.01
2022-07-29T04:20:39.590Z,14.03
2022-07-29T04:21:39.586Z,14.04
2022-07-29T04:22:39.565Z,14.06
2022-07-29T04:23:47.549Z,14.08
2022-07-29T04:24:42.866Z,14.10
2022-07-29T04:25:39.547Z,14.12
2022-07-29T04:26:39.510Z,14.14
2022-07-29T04:27:39.513Z,14.16
2022-07-29T04:28:39.482Z,14.17
2022-07-29T04:29:56.780Z,14.19
2022-07-29T04:30:39.483Z,14.21
2022-07-29T04:31:39.507Z,14.24
2022-07-29T04:32:39.456Z,14.26
2022-07-29T04:33:39.416Z,14.29
2022-07-29T04:34:39.432Z,14.32
2022-07-29T04:35:45.814Z,14.35
2022-07-29T04:36:39.788Z,14.38
2022-07-29T04:37:39.361Z,14.41
2022-07-29T04:38:39.381Z,14.44
2022-07-29T04:39:39.365Z,14.47
2022-07-29T04:40:39.326Z,14.51
2022-07-29T04:41:39.326Z,14.54
2022-07-29T04:42:46.536Z,14.57
2022-07-29T04:43:39.313Z,14.60
2022-07-29T04:44:39.692Z,14.63
2022-07-29T04:45:39.275Z,14.65
2022-07-29T04:46:39.297Z,14.67
2022-07-29T04:47:39.274Z,14.70
2022-07-29T04:48:39.312Z,14.74
2022-07-29T04:49:39.221Z,14.77
2022-07-29T04:50:39.204Z,14.80
2022-07-29T04:51:39.183Z,14.81
2022-07-29T04:52:39.187Z,14.83
2022-07-29T04:53:39.190Z,14.85
2022-07-29T04:54:39.146Z,14.86
2022-07-29T04:55:39.255Z,14.87
2022-07-29T04:56:39.124Z,14.87
2022-07-29T04:57:39.128Z,14.88
2022-07-29T04:58:39.115Z,14.90
2022-07-29T04:59:39.093Z,14.91
2022-07-29T05:00:39.068Z,14.92
2022-07-29T05:01:39.119Z,14.93
2022-07-29T05:02:39.108Z,14.94
2022-07-29T05:03:39.032Z,14.95
2022-07-29T05:04:39.040Z,14.96
2022-07-29T05:05:39.011Z,14.97
2022-07-29T05:06:38.992Z,14.99
2022-07-29T05:07:38.975Z,15.01
2022-07-29T05:08:38.975Z,15.04
2022-07-29T05:09:38.946Z,15.07
2022-07-29T05:10:38.943Z,15.10
2022-07-29T05:11:38.918Z,15.13
2022-07-29T05:12:38.947Z,15.15
2022-07-29T05:13:45.060Z,15.17
2022-07-29T05:14:38.890Z,15.20
2022-07-29T05:15:38.889Z,15.22
2022-07-29T05:16:38.878Z,15.25
2022-07-29T05:17:38.877Z,15.28
2022-07-29T05:18:38.832Z,15.31
2022-07-29T05:19:39.578Z,15.33
2022-07-29T05:20:38.819Z,15.35
2022-07-29T05:21:38.818Z,15.36
2022-07-29T05:22:38.798Z,15.37
2022-07-29T05:23:38.765Z,15.39
2022-07-29T05:24:38.766Z,15.41
2022-07-29T05:25:43.607Z,15.43
2022-07-29T05:26:38.758Z,15.46
2022-07-29T05:27:38.730Z,15.49
2022-07-29T05:28:38.719Z,15.50
2022-07-29T05:29:44.943Z,15.52
2022-07-29T05:30:38.719Z,15.52
2022-07-29T05:31:38.694Z,15.51
2022-07-29T05:32:38.650Z,15.49
2022-07-29T05:33:38.636Z,15.47
2022-07-29T05:34:38.635Z,15.45
2022-07-29T05:35:38.619Z,15.46
2022-07-29T05:36:38.614Z,15.47
2022-07-29T05:37:38.577Z,15.49
2022-07-29T05:38:38.582Z,15.51
2022-07-29T05:39:48.467Z,15.54
2022-07-29T05:40:38.547Z,15.56
2022-07-29T05:41:38.565Z,15.59
2022-07-29T05:42:38.534Z,15.61
2022-07-29T05:43:38.512Z,15.64
2022-07-29T05:44:38.490Z,15.67
2022-07-29T05:45:49.947Z,15.70
2022-07-29T05:46:38.566Z,15.73
2022-07-29T05:47:38.451Z,15.77
2022-07-29T05:48:38.491Z,15.82
2022-07-29T05:49:38.433Z,15.85
2022-07-29T05:50:38.473Z,15.88
2022-07-29T05:51:38.562Z,15.91
2022-07-29T05:52:38.397Z,15.95
2022-07-29T05:53:38.397Z,15.99
2022-07-29T05:54:38.409Z,16.02
2022-07-29T05:55:38.329Z,16.04
2022-07-29T05:56:38.321Z,16.05
2022-07-29T05:57:38.335Z,16.08
2022-07-29T05:58:38.316Z,16.12
2022-07-29T05:59:38.307Z,16.16
2022-07-29T06:00:38.268Z,16.20
2022-07-29T06:01:38.327Z,16.26
2022-07-29T06:02:38.266Z,16.33
2022-07-29T06:03:38.262Z,16.42
2022-07-29T06:04:38.287Z,16.51
2022-07-29T06:05:38.202Z,16.58
2022-07-29T06:06:38.249Z,16.65
2022-07-29T06:07:38.172Z,16.72
2022-07-29T06:08:38.199Z,16.80
2022-07-29T06:09:38.146Z,16.87
2022-07-29T06:10:38.136Z,16.92
2022-07-29T06:11:38.147Z,16.95
2022-07-29T06:12:38.122Z,16.95
2022-07-29T06:13:38.108Z,16.96
2022-07-29T06:14:38.123Z,17.01
2022-07-29T06:15:38.092Z,17.08
2022-07-29T06:16:38.165Z,17.17
2022-07-29T06:17:38.050Z,17.26
2022-07-29T06:18:38.082Z,17.35
2022-07-29T06:19:38.084Z,17.41
2022-07-29T06:20:38.010Z,17.46
2022-07-29T06:21:42.079Z,17.52
2022-07-29T06:22:37.987Z,17.56
2022-07-29T06:23:37.973Z,17.59
2022-07-29T06:24:37.980Z,17.63
2022-07-29T06:25:37.983Z,17.67
2022-07-29T06:26:39.966Z,17.69
2022-07-29T06:27:38.001Z,17.72
2022-07-29T06:28:37.899Z,17.77
2022-07-29T06:29:37.895Z,17.86
2022-07-29T06:30:37.931Z,17.96
2022-07-29T06:31:37.899Z,18.07
2022-07-29T06:32:42.709Z,18.17
2022-07-29T06:33:37.925Z,18.21
2022-07-29T06:34:37.826Z,18.24
2022-07-29T06:35:41.953Z,18.27
2022-07-29T06:36:37.967Z,18.30
2022-07-29T06:37:37.812Z,18.36
2022-07-29T06:38:42.914Z,18.43
2022-07-29T06:39:37.769Z,18.51
2022-07-29T06:40:37.797Z,18.56
2022-07-29T06:41:37.752Z,18.57
2022-07-29T06:42:37.721Z,18.57
2022-07-29T06:43:50.604Z,18.57
2022-07-29T06:44:37.700Z,18.61
2022-07-29T06:45:37.696Z,18.68
2022-07-29T06:46:37.884Z,18.73
2022-07-29T06:47:37.653Z,18.78
2022-07-29T06:48:37.691Z,18.83
2022-07-29T06:49:37.618Z,18.86
2022-07-29T06:50:37.634Z,18.82
2022-07-29T06:51:37.613Z,18.75
2022-07-29T06:52:37.624Z,18.73
2022-07-29T06:53:37.570Z,18.75
2022-07-29T06:54:37.558Z,18.75
2022-07-29T06:55:37.567Z,18.75
2022-07-29T06:56:39.492Z,18.77
2022-07-29T06:57:37.616Z,18.80
2022-07-29T06:58:37.514Z,18.83
2022-07-29T06:59:37.506Z,18.87
2022-07-29T07:00:37.562Z,18.90
2022-07-29T07:01:37.586Z,18.91
2022-07-29T07:02:37.515Z,18.92
2022-07-29T07:03:37.506Z,18.94
2022-07-29T07:04:37.614Z,18.99
2022-07-29T07:05:37.451Z,19.03
2022-07-29T07:06:37.465Z,19.00
2022-07-29T07:07:37.479Z,18.94
2022-07-29T07:08:37.482Z,18.91
2022-07-29T07:09:40.362Z,18.93
2022-07-29T07:10:37.411Z,19.00
2022-07-29T07:11:37.377Z,19.06
2022-07-29T07:12:37.368Z,19.09
2022-07-29T07:13:37.312Z,19.13
2022-07-29T07:14:37.337Z,19.13
2022-07-29T07:15:38.854Z,19.08
2022-07-29T07:16:37.328Z,19.10
2022-07-29T07:17:37.257Z,19.17
2022-07-29T07:18:37.255Z,19.28
2022-07-29T07:19:37.266Z,19.38
2022-07-29T07:20:37.221Z,19.45
2022-07-29T07:21:37.220Z,19.52
2022-07-29T07:22:39.060Z,19.61
2022-07-29T07:23:37.227Z,19.66
2022-07-29T07:24:37.217Z,19.61
2022-07-29T07:25:37.163Z,19.54
2022-07-29T07:26:37.141Z,19.53
2022-07-29T07:27:37.120Z,19.56
2022-07-29T07:28:37.118Z,19.63
2022-07-29T07:29:37.113Z,19.68
2022-07-29T07:30:37.101Z,19.70
2022-07-29T07:31:37.213Z,19.75
2022-07-29T07:32:37.111Z,19.80
2022-07-29T07:33:37.070Z,19.84
2022-07-29T07:34:37.055Z,19.93
2022-07-29T07:35:37.022Z,20.04
2022-07-29T07:36:37.016Z,20.13
2022-07-29T07:37:36.997Z,20.17
2022-07-29T07:38:37.013Z,20.11
2022-07-29T07:39:36.995Z,20.01
2022-07-29T07:40:36.975Z,19.90
2022-07-29T07:41:36.942Z,19.80
2022-07-29T07:42:36.953Z,19.75
2022-07-29T07:43:36.951Z,19.75
2022-07-29T07:44:57.310Z,19.77
2022-07-29T07:45:36.963Z,19.83
2022-07-29T07:46:37.015Z,19.91
2022-07-29T07:47:36.893Z,20.01
2022-07-29T07:48:36.897Z,20.15
2022-07-29T07:49:36.863Z,20.29
2022-07-29T07:50:36.867Z,20.41
2022-07-29T07:51:36.815Z,20.52
2022-07-29T07:52:36.805Z,20.65
2022-07-29T07:53:36.800Z,20.82
2022-07-29T07:54:36.783Z,21.00
2022-07-29T07:56:00.448Z,21.16
2022-07-29T07:56:36.756Z,21.28
2022-07-29T07:57:36.745Z,21.39
2022-07-29T07:58:36.732Z,21.54
2022-07-29T07:59:36.729Z,21.72
2022-07-29T08:00:36.739Z,21.93
2022-07-29T08:01:47.889Z,22.19
2022-07-29T08:02:36.735Z,22.46
2022-07-29T08:03:36.680Z,22.78
2022-07-29T08:04:36.675Z,23.10
2022-07-29T08:05:36.643Z,23.27
2022-07-29T08:06:36.649Z,23.31
2022-07-29T08:07:36.602Z,23.19
2022-07-29T08:08:36.645Z,23.11
2022-07-29T08:09:36.605Z,23.23
2022-07-29T08:10:36.594Z,23.33
2022-07-29T08:11:37.747Z,23.23
2022-07-29T08:12:36.563Z,23.06
2022-07-29T08:13:36.542Z,22.94
2022-07-29T08:14:36.554Z,22.89
2022-07-29T08:15:36.502Z,22.90
2022-07-29T08:16:36.538Z,22.91
2022-07-29T08:17:36.495Z,22.86
2022-07-29T08:18:36.465Z,22.78
2022-07-29T08:19:36.454Z,22.72
2022-07-29T08:20:36.442Z,22.72
2022-07-29T08:21:36.598Z,22.70
2022-07-29T08:22:36.432Z,22.65
2022-07-29T08:23:46.494Z,22.64
2022-07-29T08:24:36.397Z,22.65
2022-07-29T08:25:38.579Z,22.71
2022-07-29T08:26:36.364Z,22.86
2022-07-29T08:27:44.352Z,23.04
2022-07-29T08:28:36.358Z,23.20
2022-07-29T08:29:36.336Z,23.30
2022-07-29T08:30:36.317Z,23.34
2022-07-29T08:31:36.416Z,23.30
2022-07-29T08:32:53.258Z,23.22
2022-07-29T08:33:36.310Z,23.16
2022-07-29T08:34:36.255Z,23.18
2022-07-29T08:35:36.510Z,23.24
2022-07-29T08:36:36.252Z,23.33
2022-07-29T08:37:36.243Z,23.44
2022-07-29T08:38:36.240Z,23.53
2022-07-29T08:39:36.265Z,23.61
2022-07-29T08:40:36.175Z,23.67
2022-07-29T08:41:36.176Z,23.70
2022-07-29T08:42:36.169Z,23.73
2022-07-29T08:43:36.153Z,23.67
2022-07-29T08:44:36.140Z,23.55
2022-07-29T08:45:36.147Z,23.41
2022-07-29T08:46:36.116Z,23.35
2022-07-29T08:47:36.118Z,23.38
2022-07-29T08:48:36.078Z,23.49
2022-07-29T08:49:36.090Z,23.64
2022-07-29T08:50:36.065Z,23.68
2022-07-29T08:51:36.060Z,23.68
2022-07-29T08:52:36.049Z,23.67
2022-07-29T08:53:36.016Z,23.66
2022-07-29T08:54:36.011Z,23.70
2022-07-29T08:55:36.024Z,23.73
2022-07-29T08:56:35.979Z,23.75
2022-07-29T08:57:37.260Z,23.76
2022-07-29T08:58:37.138Z,23.77
2022-07-29T08:59:35.964Z,23.72
2022-07-29T09:00:35.976Z,23.62
2022-07-29T09:01:45.142Z,23.55
2022-07-29T09:02:35.924Z,23.52
2022-07-29T09:03:36.017Z,23.51
2022-07-29T09:04:35.893Z,23.54
2022-07-29T09:05:40.603Z,23.58
2022-07-29T09:06:35.900Z,23.57
2022-07-29T09:07:35.835Z,23.51
2022-07-29T09:08:35.820Z,23.47
2022-07-29T09:09:35.828Z,23.48
2022-07-29T09:10:35.811Z,23.47
2022-07-29T09:11:35.789Z,23.49
2022-07-29T09:12:38.053Z,23.57
2022-07-29T09:13:35.800Z,23.75
2022-07-29T09:14:35.745Z,24.04
2022-07-29T09:15:35.736Z,24.35
2022-07-29T09:16:52.244Z,24.63
2022-07-29T09:17:35.775Z,24.96
2022-07-29T09:18:35.706Z,25.23
2022-07-29T09:19:35.707Z,25.32
2022-07-29T09:20:35.696Z,25.36
2022-07-29T09:21:35.716Z,25.45
2022-07-29T09:22:40.077Z,25.66
2022-07-29T09:23:35.680Z,25.83
2022-07-29T09:24:35.621Z,25.92
2022-07-29T09:25:35.633Z,25.96
2022-07-29T09:26:35.617Z,25.92
2022-07-29T09:27:35.626Z,25.94
2022-07-29T09:28:35.594Z,26.10
2022-07-29T09:29:36.371Z,26.30
2022-07-29T09:30:35.554Z,26.55
2022-07-29T09:31:35.655Z,26.90
2022-07-29T09:32:35.520Z,27.16
2022-07-29T09:33:35.566Z,27.37
2022-07-29T09:34:35.516Z,27.59
2022-07-29T09:35:35.496Z,27.71
2022-07-29T09:36:35.477Z,27.70
2022-07-29T09:37:35.491Z,27.75
2022-07-29T09:38:35.469Z,27.90
2022-07-29T09:39:35.483Z,28.02
2022-07-29T09:40:35.444Z,28.08
2022-07-29T09:41:35.421Z,28.09
2022-07-29T09:42:35.424Z,28.10
2022-07-29T09:43:35.414Z,28.10
2022-07-29T09:44:35.389Z,28.01
2022-07-29T09:45:35.505Z,27.84
2022-07-29T09:46:35.439Z,27.65
2022-07-29T09:47:35.396Z,27.37
2022-07-29T09:48:35.340Z,27.07
2022-07-29T09:49:35.336Z,26.78
2022-07-29T09:50:35.323Z,26.60
2022-07-29T09:51:38.514Z,26.73
2022-07-29T09:52:35.323Z,27.13
2022-07-29T09:53:35.318Z,27.53
2022-07-29T09:54:35.289Z,27.86
2022-07-29T09:55:35.263Z,28.19
2022-07-29T09:56:35.396Z,28.55
2022-07-29T09:57:35.432Z,28.81
2022-07-29T09:58:35.299Z,28.92
2022-07-29T09:59:35.374Z,28.71
2022-07-29T10:00:35.471Z,28.33
2022-07-29T10:01:35.251Z,28.12
2022-07-29T10:02:35.469Z,28.02
2022-07-29T10:03:35.217Z,27.84
2022-07-29T10:04:35.224Z,27.66
2022-07-29T10:05:36.101Z,27.52
2022-07-29T10:06:35.256Z,27.48
2022-07-29T10:07:35.236Z,27.64
2022-07-29T10:08:35.139Z,27.88
2022-07-29T10:09:35.138Z,28.09
2022-07-29T10:10:35.086Z,28.21
2022-07-29T10:11:48.172Z,28.09
2022-07-29T10:12:35.079Z,27.82
2022-07-29T10:13:35.279Z,27.57
2022-07-29T10:14:35.123Z,27.37
2022-07-29T10:15:35.191Z,27.21
2022-07-29T10:16:35.248Z,27.18
2022-07-29T10:17:35.430Z,27.14
2022-07-29T10:18:35.134Z,27.02
2022-07-29T10:19:34.980Z,27.00
2022-07-29T10:20:35.030Z,27.01
2022-07-29T10:21:36.627Z,27.07
2022-07-29T10:22:52.343Z,27.09
2022-07-29T10:23:46.094Z,26.89
2022-07-29T10:24:35.043Z,26.53
2022-07-29T10:25:34.966Z,26.15
2022-07-29T10:26:35.057Z,25.94
2022-07-29T10:27:34.980Z,25.86
2022-07-29T10:28:34.914Z,25.88
2022-07-29T10:29:34.880Z,25.97
2022-07-29T10:30:34.866Z,26.04
2022-07-29T10:31:34.908Z,26.09
2022-07-29T10:32:34.886Z,26.18
2022-07-29T10:33:34.833Z,26.30
2022-07-29T10:34:34.895Z,26.35
2022-07-29T10:35:34.857Z,26.32
2022-07-29T10:36:34.974Z,26.19
2022-07-29T10:37:35.345Z,26.07
2022-07-29T10:38:34.758Z,26.04
2022-07-29T10:39:44.380Z,26.11
2022-07-29T10:40:34.741Z,26.24
2022-07-29T10:41:36.327Z,26.38
2022-07-29T10:42:34.893Z,26.56
2022-07-29T10:43:34.689Z,26.90
2022-07-29T10:44:34.667Z,27.34
2022-07-29T10:45:34.687Z,27.69
2022-07-29T10:46:34.726Z,27.99
2022-07-29T10:47:35.466Z,28.20
2022-07-29T10:48:34.624Z,28.16
2022-07-29T10:49:34.641Z,28.07
2022-07-29T10:50:34.610Z,28.19
2022-07-29T10:51:34.587Z,28.43
2022-07-29T10:52:34.598Z,28.66
2022-07-29T10:53:34.588Z,28.93
2022-07-29T10:54:34.553Z,29.08
2022-07-29T10:55:34.548Z,29.04
2022-07-29T10:56:34.548Z,29.08
2022-07-29T10:57:53.510Z,29.27
2022-07-29T10:58:34.519Z,29.37
2022-07-29T10:59:36.426Z,29.36
2022-07-29T11:00:34.509Z,29.39
2022-07-29T11:01:37.725Z,29.57
2022-07-29T11:02:41.989Z,29.76
2022-07-29T11:03:34.509Z,29.70
2022-07-29T11:04:34.461Z,29.39
2022-07-29T11:05:39.971Z,29.14
2022-07-29T11:06:34.424Z,29.11
2022-07-29T11:07:45.993Z,29.16
2022-07-29T11:08:34.432Z,29.19
2022-07-29T11:09:34.979Z,29.15
2022-07-29T11:10:34.405Z,29.06
2022-07-29T11:11:34.971Z,29.00
2022-07-29T11:12:34.402Z,29.13
2022-07-29T11:13:38.393Z,29.30
2022-07-29T11:14:34.529Z,29.20
2022-07-29T11:15:34.569Z,28.75
2022-07-29T11:16:34.334Z,28.33
2022-07-29T11:17:47.088Z,28.20
2022-07-29T11:18:34.352Z,28.47
2022-07-29T11:19:34.384Z,28.99
2022-07-29T11:20:34.327Z,29.55
2022-07-29T11:21:48.845Z,29.89
2022-07-29T11:22:34.605Z,29.94
2022-07-29T11:23:34.743Z,29.99
2022-07-29T11:24:34.861Z,30.13
2022-07-29T11:25:42.867Z,30.25
2022-07-29T11:26:34.274Z,30.47
2022-07-29T11:27:34.239Z,30.88
2022-07-29T11:28:34.241Z,31.13
2022-07-29T11:29:34.219Z,30.96
2022-07-29T11:30:34.185Z,30.62
2022-07-29T11:31:34.322Z,30.47
2022-07-29T11:32:34.157Z,30.46
2022-07-29T11:33:54.316Z,30.58
2022-07-29T11:34:34.879Z,30.87
2022-07-29T11:35:37.976Z,31.19
2022-07-29T11:36:34.110Z,31.34
2022-07-29T11:37:34.109Z,30.93
2022-07-29T11:38:34.115Z,30.44
2022-07-29T11:39:36.738Z,30.02
2022-07-29T11:40:34.109Z,29.70
2022-07-29T11:41:34.081Z,29.63
2022-07-29T11:42:34.448Z,29.82
2022-07-29T11:43:34.059Z,29.89
2022-07-29T11:44:34.070Z,29.70
2022-07-29T11:45:43.862Z,29.52
2022-07-29T11:46:34.022Z,29.42
2022-07-29T11:47:38.229Z,29.45
2022-07-29T11:48:34.840Z,29.51
2022-07-29T11:49:34.125Z,29.42
2022-07-29T11:50:33.989Z,29.23
2022-07-29T11:51:33.988Z,28.97
2022-07-29T11:52:33.978Z,28.69
2022-07-29T11:53:33.978Z,28.43
2022-07-29T11:54:33.937Z,28.51
2022-07-29T11:55:34.012Z,28.97
2022-07-29T11:56:33.911Z,29.53
2022-07-29T11:57:37.226Z,29.99
2022-07-29T11:58:33.927Z,30.28
2022-07-29T11:59:35.189Z,30.41
2022-07-29T12:00:33.859Z,30.49
2022-07-29T12:01:33.964Z,30.58
2022-07-29T12:02:37.490Z,30.76
2022-07-29T12:03:35.709Z,31.03
2022-07-29T12:04:33.828Z,31.33
2022-07-29T12:05:36.928Z,31.28
2022-07-29T12:06:33.825Z,31.15
2022-07-29T12:07:35.169Z,31.15
2022-07-29T12:08:33.853Z,31.03
2022-07-29T12:09:40.153Z,30.71
2022-07-29T12:10:33.842Z,30.48
2022-07-29T12:11:33.787Z,30.44
2022-07-29T12:12:33.782Z,30.52
2022-07-29T12:13:37.507Z,30.78
2022-07-29T12:14:33.721Z,31.09
2022-07-29T12:15:46.220Z,31.29
2022-07-29T12:16:33.823Z,31.34
2022-07-29T12:17:33.742Z,31.32
2022-07-29T12:18:33.732Z,31.34
2022-07-29T12:19:33.691Z,31.41
2022-07-29T12:20:33.657Z,31.26
2022-07-29T12:21:33.666Z,30.87
2022-07-29T12:22:33.664Z,30.48
2022-07-29T12:23:34.387Z,30.10
2022-07-29T12:24:33.947Z,29.82
2022-07-29T12:25:34.731Z,29.47
2022-07-29T12:26:34.202Z,29.08
2022-07-29T12:27:33.725Z,28.81
2022-07-29T12:28:33.825Z,28.72
2022-07-29T12:29:35.765Z,28.94
2022-07-29T12:30:33.650Z,29.29
2022-07-29T12:31:43.021Z,29.28
2022-07-29T12:32:33.910Z,28.94
2022-07-29T12:33:33.740Z,28.78
2022-07-29T12:34:33.581Z,28.72
2022-07-29T12:35:33.837Z,28.42
2022-07-29T12:36:34.387Z,28.05
2022-07-29T12:37:41.287Z,27.90
2022-07-29T12:38:34.051Z,27.92
2022-07-29T12:39:33.492Z,28.07
2022-07-29T12:40:33.773Z,28.27
2022-07-29T12:41:33.484Z,28.47
2022-07-29T12:42:34.325Z,28.70
2022-07-29T12:43:33.458Z,28.84
2022-07-29T12:44:33.503Z,29.09
2022-07-29T12:45:33.573Z,29.59
2022-07-29T12:46:33.646Z,30.10
2022-07-29T12:47:33.383Z,30.44
2022-07-29T12:48:33.504Z,30.80
2022-07-29T12:49:37.919Z,31.03
2022-07-29T12:50:33.798Z,31.13
2022-07-29T12:51:33.723Z,31.08
2022-07-29T12:52:33.578Z,31.00